San Antonio International Airport
KSAT : now visible

Airfield :











YOU CAN JOIN US ON...

 
LOGIN :

Register | Disclaimer

   EN    FR    IT 

 









Legend :    VFR   Marginal VFR   IFR   Intensive IFR   Very Intensive IFR
Visi :
Ceiling :
>= 8 km
>= 3000ft
5 to 8 km
1000 to 3000 ft
1500m to 5 km
500 to 1000 ft
800 to 1500m
200 to 500 ft
< 800m
< 200 ft
Symbols :   Thunderstorms  Fog  Heavy snow  Heavy precipitations  Wind > 20 kt






- Airport Elevation : 809 ft
- IATA code : SAT


KSAT - San Antonio International

CURRENT METAR :
  • 200251Z 01008KT 10SM OVC010 10/08 A3035 RMK AO2 SLP266 60001 T01000078 51025

EXPIRED METARs :
  • 200151Z 02014G21KT 10SM OVC011 10/08 A3033 RMK AO2 RAB0052E46 SLP259 P0000 T01000083
  • 200106Z 01014G21KT 10SM -RA OVC011 11/09 A3031 RMK AO2 RAB0052 P0000 T01110089
  • 200051Z 01011KT 10SM BKN008 OVC013 11/09 A3031 RMK AO2 RAE39 SLP252 P0001 T01110089

TAF KSAT
Valid from the 20 at 01:00 until the 21 at 06:00 UTC


200112Z 2001/2106 01014KT P6SM -SHRA OVC011
FM200700 02012KT P6SM VCSH OVC008
FM201400 01007KT 5SM -SHRA BR OVC004
KZHU FIR / North America



MET'MAP, your aeronautical weather chart ! - Copyright ORBIFLY December 2007 - Disclaimer

ORBIFLY MET'MAP TEAM :

Programming & Development : Alexandra Zaïnal
Concept & original design : Baudouin d'Aumeries
Assistance for programming : Marc-Olivier Méhu
Technical & hardware support : Manuel Goepfert

Contact : metmap@orbifly.com




SOURCES & CREDITS :

   NOAA       Earth
Advisory